Time;durP1;ratioP1;P1;durP2;ratioP2;P2;SDS_P1;SDS_P2;PMS_P1;PMS_P2;Temp;Humidity;BMP_temperature;BMP_pressure;BME280_temperature;BME280_humidity;BME280_pressure;Samples;Min_cycle;Max_cycle;Signal;HPM_P1;HPM_P2
2021/12/14 00:02:18;;;;;;;14.25;10.27;;;;;;;19.46;31.85;100111.94;5163252;27;20042;-72
2021/12/14 00:04:44;;;;;;;15.27;9.90;;;;;;;19.47;31.70;100117.16;5165890;27;20030;-70
2021/12/14 00:07:14;;;;;;;14.20;9.65;;;;;;;19.47;31.96;100111.78;5153583;27;20022;-66
2021/12/14 00:09:41;;;;;;;14.05;9.25;;;;;;;19.48;31.75;100113.44;5151690;27;20174;-69
2021/12/14 00:17:26;;;;;;;11.65;8.93;;;;;;;19.48;31.87;100118.81;5152701;27;20094;-58
2021/12/14 00:19:55;;;;;;;15.07;9.40;;;;;;;19.48;31.88;100110.75;5173001;27;20042;-64
2021/12/14 00:25:07;;;;;;;14.40;8.77;;;;;;;19.50;31.75;100124.03;5110329;27;20080;-62
2021/12/14 00:27:33;;;;;;;12.05;8.20;;;;;;;19.50;31.76;100124.84;5152193;27;20034;-63
2021/12/14 00:30:03;;;;;;;12.60;9.25;;;;;;;19.51;31.88;100125.69;5151718;27;20062;-65
2021/12/14 00:32:33;;;;;;;12.45;8.82;;;;;;;19.50;31.95;100130.22;5151889;27;20174;-64
2021/12/14 00:35:02;;;;;;;15.43;9.68;;;;;;;19.48;31.75;100124.16;5151755;27;20247;-55
2021/12/14 00:37:35;;;;;;;12.20;9.20;;;;;;;19.50;31.82;100129.38;5152041;27;20019;-59
2021/12/14 00:40:09;;;;;;;14.75;9.63;;;;;;;19.48;31.91;100129.53;5151777;27;20032;-67
2021/12/14 00:42:35;;;;;;;13.88;9.55;;;;;;;19.47;32.04;100125.19;5151469;27;20054;-65
2021/12/14 00:45:00;;;;;;;13.52;8.68;;;;;;;19.46;31.91;100125.34;5151150;27;20050;-68
2021/12/14 00:47:26;;;;;;;10.70;8.13;;;;;;;19.49;31.93;100128.53;5151579;27;20208;-65
2021/12/14 00:49:54;;;;;;;14.40;8.65;;;;;;;19.50;31.94;100121.34;5151483;27;20090;-63
2021/12/14 00:52:20;;;;;;;13.93;9.77;;;;;;;19.47;31.92;100125.19;5150488;27;20023;-65
2021/12/14 00:54:46;;;;;;;12.13;9.05;;;;;;;19.48;31.87;100121.47;5167350;27;20216;-62
2021/12/14 00:57:12;;;;;;;9.95;8.02;;;;;;;19.48;31.97;100121.47;5148620;27;20031;-66
2021/12/14 00:59:37;;;;;;;11.00;8.40;;;;;;;19.50;31.94;100115.97;5150445;27;20057;-66
2021/12/14 01:02:13;;;;;;;17.55;8.75;;;;;;;19.47;31.81;100119.84;5152033;27;20023;-67
2021/12/14 01:04:52;;;;;;;12.68;8.57;;;;;;;19.44;31.85;100121.97;5150610;27;20035;-68
2021/12/14 01:07:22;;;;;;;14.73;8.40;;;;;;;19.40;31.85;100123.34;5147924;27;20023;-61
2021/12/14 01:09:51;;;;;;;23.05;8.90;;;;;;;19.35;32.00;100121.13;5149372;27;20176;-64
2021/12/14 01:12:31;;;;;;;11.18;8.60;;;;;;;19.33;31.51;100120.47;5147128;27;20022;-61
2021/12/14 01:18:16;;;;;;;10.90;8.65;;;;;;;19.24;31.82;100119.59;5135603;27;20035;-63
2021/12/14 01:20:47;;;;;;;14.68;8.13;;;;;;;19.23;31.94;100111.72;5130223;27;20116;-63
2021/12/14 01:23:18;;;;;;;13.07;7.80;;;;;;;19.21;31.73;100107.34;5130751;27;20038;-64
2021/12/14 01:25:49;;;;;;;11.48;7.32;;;;;;;19.22;31.73;100110.88;5130119;27;20042;-62
2021/12/14 01:28:20;;;;;;;13.90;8.27;;;;;;;19.18;31.62;100113.06;5133108;27;20087;-62
2021/12/14 01:30:59;;;;;;;13.48;7.80;;;;;;;19.18;31.78;100112.19;5132822;27;20349;-62
2021/12/14 01:33:26;;;;;;;13.90;8.88;;;;;;;19.15;31.25;100110.69;5131150;27;20118;-62
2021/12/14 01:35:53;;;;;;;9.77;7.75;;;;;;;19.15;31.50;100110.69;5129844;27;20058;-61
2021/12/14 01:40:57;;;;;;;11.63;7.78;;;;;;;19.12;31.44;100107.47;5130165;27;20221;-62
2021/12/14 01:43:34;;;;;;;12.32;7.93;;;;;;;19.10;31.39;100102.28;5129699;27;20023;-61
2021/12/14 01:46:07;;;;;;;10.00;7.65;;;;;;;19.09;31.26;100111.34;5129746;27;20028;-62
2021/12/14 01:48:33;;;;;;;10.15;8.27;;;;;;;19.09;31.20;100107.81;5129847;27;20016;-60
2021/12/14 01:51:03;;;;;;;9.73;7.22;;;;;;;19.08;31.44;100109.66;5129582;27;20224;-63
2021/12/14 01:53:29;;;;;;;10.93;7.50;;;;;;;19.07;31.18;100099.91;5129547;27;20217;-63
2021/12/14 01:56:00;;;;;;;9.32;8.18;;;;;;;19.04;31.43;100097.59;5129510;28;20015;-63
2021/12/14 01:58:35;;;;;;;10.73;7.85;;;;;;;19.02;31.20;100094.22;5129417;27;20023;-63
2021/12/14 02:01:12;;;;;;;12.23;7.50;;;;;;;19.02;31.25;100094.22;5129460;27;20031;-62
2021/12/14 02:03:54;;;;;;;11.68;7.53;;;;;;;19.02;31.21;100099.59;5129365;28;20240;-61
2021/12/14 02:06:25;;;;;;;9.32;7.18;;;;;;;19.01;31.10;100106.78;5129353;27;20020;-62
2021/12/14 02:09:13;;;;;;;10.40;7.78;;;;;;;19.02;31.21;100104.94;5129155;27;20025;-62
2021/12/14 02:11:44;;;;;;;8.95;6.97;;;;;;;19.01;31.18;100096.06;5129144;27;20031;-63
2021/12/14 02:14:09;;;;;;;10.93;7.80;;;;;;;18.99;31.08;100091.88;5128518;27;20106;-61
2021/12/14 02:16:36;;;;;;;9.48;7.68;;;;;;;18.98;31.08;100087.50;5128956;27;20023;-61
2021/12/14 02:19:09;;;;;;;9.88;7.47;;;;;;;18.97;31.05;100092.00;5129109;27;20031;-62
2021/12/14 02:21:36;;;;;;;12.15;7.63;;;;;;;18.97;31.00;100088.50;5129024;28;20043;-62
2021/12/14 02:24:04;;;;;;;11.48;7.50;;;;;;;18.99;31.13;100091.88;5130354;27;20007;-62
2021/12/14 02:26:33;;;;;;;11.07;7.70;;;;;;;18.97;31.09;100085.81;5128968;27;20030;-62
2021/12/14 02:29:02;;;;;;;9.30;7.20;;;;;;;18.95;31.20;100091.34;5128816;27;20015;-62
2021/12/14 02:31:29;;;;;;;10.57;7.88;;;;;;;18.95;31.11;100094.03;5144129;27;20119;-62
2021/12/14 02:33:57;;;;;;;12.00;7.63;;;;;;;18.95;31.12;100107.44;5149421;27;20035;-62
2021/12/14 02:36:29;;;;;;;9.48;6.85;;;;;;;18.95;31.16;100112.81;5149715;27;20015;-63
2021/12/14 02:39:07;;;;;;;9.38;7.65;;;;;;;18.95;31.21;100110.13;5149409;27;20027;-62
2021/12/14 02:41:41;;;;;;;8.80;6.95;;;;;;;18.95;31.37;100099.41;5149446;27;20034;-62
2021/12/14 02:44:07;;;;;;;8.75;6.30;;;;;;;18.97;31.20;100097.38;5149378;27;20086;-62
2021/12/14 02:46:48;;;;;;;10.70;7.25;;;;;;;18.96;31.19;100089.50;5149425;27;20034;-62
2021/12/14 02:49:20;;;;;;;10.40;7.28;;;;;;;18.97;31.36;100091.19;5149327;27;20131;-62
2021/12/14 02:51:50;;;;;;;7.75;6.60;;;;;;;18.97;31.30;100083.13;5149192;27;20082;-63
2021/12/14 02:54:20;;;;;;;10.30;7.10;;;;;;;18.98;31.33;100087.50;5149222;27;20019;-62
2021/12/14 02:56:48;;;;;;;8.65;6.22;;;;;;;18.98;31.45;100088.31;5149189;27;20079;-63
2021/12/14 02:59:21;;;;;;;9.13;6.93;;;;;;;18.98;31.48;100084.81;5149171;27;20159;-62
2021/12/14 03:01:50;;;;;;;8.32;6.70;;;;;;;18.98;31.30;100085.63;5149047;27;20086;-63
2021/12/14 03:04:16;;;;;;;12.27;6.70;;;;;;;18.97;31.49;100081.28;5149074;27;20031;-63
2021/12/14 03:06:50;;;;;;;9.65;7.00;;;;;;;18.98;31.43;100074.09;5148947;27;20038;-62
2021/12/14 03:09:39;;;;;;;8.88;6.57;;;;;;;18.96;31.58;100076.09;5148896;27;20185;-62
2021/12/14 03:12:14;;;;;;;9.07;7.10;;;;;;;18.96;31.24;100084.13;5148647;27;20083;-62
2021/12/14 03:14:46;;;;;;;9.30;6.53;;;;;;;18.95;31.42;100083.31;5148888;27;20023;-63
2021/12/14 03:17:11;;;;;;;10.18;7.07;;;;;;;18.94;31.25;100089.66;5148775;27;20023;-62
2021/12/14 03:19:37;;;;;;;9.63;6.70;;;;;;;18.93;31.34;100090.63;5148779;27;20240;-63
2021/12/14 03:22:22;;;;;;;8.50;6.30;;;;;;;18.92;31.31;100095.16;5148612;27;20019;-62
2021/12/14 03:24:48;;;;;;;7.95;5.97;;;;;;;18.90;31.26;100097.16;5148647;27;20034;-62
2021/12/14 03:27:14;;;;;;;9.57;7.25;;;;;;;18.91;31.39;100098.00;5148456;27;20027;-62
2021/12/14 03:29:39;;;;;;;9.65;6.38;;;;;;;18.92;31.38;100097.81;5148502;27;20220;-62
2021/12/14 03:32:05;;;;;;;8.85;6.90;;;;;;;18.94;31.46;100088.78;5148468;27;20030;-62
2021/12/14 03:34:36;;;;;;;7.53;6.55;;;;;;;18.95;31.34;100093.19;5148358;28;20026;-62
2021/12/14 03:37:08;;;;;;;9.30;5.72;;;;;;;18.94;31.38;100092.34;5148494;27;20027;-62
2021/12/14 03:39:39;;;;;;;8.18;6.88;;;;;;;18.94;31.33;100084.31;5148548;28;20030;-62
2021/12/14 03:42:18;;;;;;;9.05;6.28;;;;;;;18.93;31.32;100085.28;5148770;27;20015;-62
2021/12/14 03:44:53;;;;;;;9.13;5.97;;;;;;;18.91;31.29;100090.78;5148548;28;20152;-63
2021/12/14 03:47:20;;;;;;;8.00;6.43;;;;;;;18.91;31.24;100084.59;5148374;27;20030;-62
2021/12/14 03:49:52;;;;;;;6.72;6.03;;;;;;;18.89;31.33;100086.59;5148447;28;20094;-63
2021/12/14 03:52:22;;;;;;;9.27;6.72;;;;;;;18.89;31.18;100089.28;5148445;27;20091;-63
2021/12/14 03:54:49;;;;;;;9.07;5.88;;;;;;;18.89;31.30;100097.31;5148503;28;20212;-63
2021/12/14 03:57:15;;;;;;;10.82;6.70;;;;;;;18.89;31.30;100091.97;5148455;27;20058;-63
2021/12/14 03:59:42;;;;;;;11.02;6.30;;;;;;;18.88;31.25;100091.13;5148500;28;20233;-62
2021/12/14 04:02:11;;;;;;;8.68;6.22;;;;;;;18.89;31.27;100089.28;5148206;27;20158;-62
2021/12/14 04:04:45;;;;;;;7.75;5.80;;;;;;;18.88;31.28;100083.09;5148380;28;20034;-64
2021/12/14 04:07:13;;;;;;;8.93;5.97;;;;;;;18.88;31.29;100093.81;5148546;27;20038;-63
2021/12/14 04:09:41;;;;;;;8.23;6.10;;;;;;;18.89;31.13;100095.50;5148378;28;20128;-63
2021/12/14 04:12:13;;;;;;;8.07;6.53;;;;;;;18.87;31.26;100089.44;5148294;27;20034;-63
2021/12/14 04:14:46;;;;;;;8.50;6.30;;;;;;;18.86;31.38;100094.94;5148599;28;20176;-63
2021/12/14 04:17:12;;;;;;;10.70;5.97;;;;;;;18.84;31.34;100094.28;5148237;27;20029;-63
2021/12/14 04:19:40;;;;;;;8.75;5.63;;;;;;;18.85;31.35;100099.50;5148283;28;20090;-63
2021/12/14 04:22:12;;;;;;;9.73;5.50;;;;;;;18.85;31.37;100104.84;5148112;27;20082;-64
2021/12/14 04:24:40;;;;;;;8.20;6.28;;;;;;;18.86;31.29;100095.81;5147848;27;20102;-63
2021/12/14 04:27:10;;;;;;;7.13;5.53;;;;;;;18.85;31.44;100102.16;5130071;27;20254;-63
2021/12/14 04:29:37;;;;;;;8.00;6.47;;;;;;;18.84;31.35;100102.31;5148109;28;20027;-63
2021/12/14 04:32:04;;;;;;;7.45;5.88;;;;;;;18.85;31.44;100104.84;5147946;27;20015;-63
2021/12/14 04:34:31;;;;;;;8.77;7.05;;;;;;;18.84;31.49;100108.53;5147905;28;20322;-63
2021/12/14 04:36:58;;;;;;;8.25;6.60;;;;;;;18.85;31.30;100101.31;5147966;27;20098;-63
2021/12/14 04:53:12;;;;;;;10.75;6.20;;;;;;;18.81;31.49;100105.34;5151464;27;20201;-63
2021/12/14 04:55:47;;;;;;;13.23;7.03;;;;;;;18.82;31.42;100109.72;5151461;27;20015;-62
2021/12/14 04:58:14;;;;;;;9.18;6.28;;;;;;;18.82;31.30;100121.25;5151373;27;20026;-61
2021/12/14 05:00:45;;;;;;;9.93;6.70;;;;;;;18.81;31.22;100113.38;5151157;27;20022;-62
2021/12/14 05:03:16;;;;;;;9.13;6.10;;;;;;;18.80;31.40;100117.88;5150919;27;20013;-62
2021/12/14 05:05:48;;;;;;;8.18;6.20;;;;;;;18.80;31.40;100112.53;5151158;27;20521;-62
2021/12/14 05:10:53;;;;;;;11.63;7.18;;;;;;;18.79;31.25;100121.56;5133844;27;20090;-62
2021/12/14 05:13:31;;;;;;;9.55;6.50;;;;;;;18.78;31.31;100122.56;5150869;27;20023;-63
2021/12/14 05:15:57;;;;;;;11.88;7.10;;;;;;;18.78;31.51;100127.09;5150873;27;20046;-63
2021/12/14 05:18:23;;;;;;;10.13;6.18;;;;;;;18.77;31.17;100128.94;5150993;27;20023;-63
2021/12/14 05:20:50;;;;;;;11.43;7.15;;;;;;;18.76;31.33;100127.25;5150641;27;20056;-64
2021/12/14 05:23:24;;;;;;;12.82;6.82;;;;;;;18.74;31.28;100123.91;5150536;27;20105;-63
2021/12/14 05:25:51;;;;;;;10.30;7.18;;;;;;;18.73;31.35;100127.59;5150874;27;20018;-63
2021/12/14 05:28:19;;;;;;;9.70;6.70;;;;;;;18.75;31.40;100133.59;5150736;27;20022;-64
2021/12/14 05:30:51;;;;;;;9.68;6.70;;;;;;;18.74;31.41;100132.78;5150635;27;20038;-63
2021/12/14 05:33:21;;;;;;;10.25;7.57;;;;;;;18.76;31.40;100143.31;5150641;27;20038;-63
2021/12/14 05:35:49;;;;;;;11.32;8.18;;;;;;;18.74;31.45;100142.66;5150793;27;20011;-64
2021/12/14 05:38:42;;;;;;;10.75;6.40;;;;;;;18.74;31.31;100138.13;5150623;27;20027;-63
2021/12/14 05:43:55;;;;;;;9.38;6.68;;;;;;;18.75;31.50;100139.81;5119049;27;20035;-63
2021/12/14 05:46:22;;;;;;;9.73;6.32;;;;;;;18.76;31.48;100136.13;5150611;27;20030;-63
2021/12/14 05:48:48;;;;;;;12.23;6.95;;;;;;;18.77;31.40;100139.66;5150457;27;20019;-63
2021/12/14 05:51:13;;;;;;;10.90;6.45;;;;;;;18.75;31.37;100137.13;5150304;27;20180;-63
2021/12/14 05:53:44;;;;;;;9.60;6.93;;;;;;;18.76;31.37;100133.47;5150286;27;20079;-63
2021/12/14 05:56:19;;;;;;;9.25;6.70;;;;;;;18.76;31.22;100135.28;5150408;27;20027;-63
2021/12/14 05:58:45;;;;;;;11.75;6.97;;;;;;;18.76;31.17;100136.13;5150186;27;20140;-63
2021/12/14 06:01:15;;;;;;;10.73;6.82;;;;;;;18.74;31.18;100135.47;5150064;27;20017;-63
2021/12/14 06:03:46;;;;;;;9.57;6.97;;;;;;;18.73;31.31;100133.78;5149844;27;20034;-63
2021/12/14 06:06:22;;;;;;;8.07;5.95;;;;;;;18.71;31.06;100135.78;5150015;27;20026;-63
2021/12/14 06:08:48;;;;;;;9.35;6.07;;;;;;;18.71;30.87;100143.81;5149998;27;20083;-63
2021/12/14 06:11:22;;;;;;;9.63;6.13;;;;;;;18.70;31.26;100143.97;5149984;27;20015;-63
2021/12/14 06:13:48;;;;;;;9.00;6.30;;;;;;;18.69;31.28;100142.31;5149824;27;20023;-62
2021/12/14 06:16:27;;;;;;;9.57;6.82;;;;;;;18.71;31.19;100149.16;5150019;27;20164;-63
2021/12/14 06:18:54;;;;;;;9.57;6.95;;;;;;;18.71;31.25;100145.66;5149783;27;20019;-63
2021/12/14 06:21:31;;;;;;;10.23;6.18;;;;;;;18.73;31.14;100138.31;5149842;27;20015;-63
2021/12/14 06:24:02;;;;;;;11.25;6.85;;;;;;;18.73;31.19;100144.50;5149736;27;20120;-63
2021/12/14 06:26:39;;;;;;;;;;;;;;;18.68;31.22;100143.28;5150180;27;20022;-61
2021/12/14 06:29:07;;;;;;;12.20;6.18;;;;;;;18.68;31.25;100151.34;5149704;27;19974;-64
2021/12/14 06:31:33;;;;;;;8.30;6.68;;;;;;;18.67;31.05;100155.00;5149430;27;20247;-63
2021/12/14 06:34:30;;;;;;;13.85;7.03;;;;;;;18.67;31.01;100155.00;5149306;27;20022;-63
2021/12/14 06:37:04;;;;;;;9.52;6.90;;;;;;;18.65;30.96;100157.88;5149209;27;20030;-63
2021/12/14 06:39:31;;;;;;;9.90;6.78;;;;;;;18.65;31.15;100146.28;5149393;27;20042;-63
2021/12/14 06:42:05;;;;;;;11.63;7.45;;;;;;;18.67;31.14;100146.97;5149336;27;20041;-63
2021/12/14 06:44:30;;;;;;;11.43;6.93;;;;;;;18.68;31.14;100140.63;5149407;27;20132;-63
2021/12/14 06:46:56;;;;;;;10.40;7.75;;;;;;;18.71;30.87;100143.81;5149281;27;20094;-62
2021/12/14 06:49:22;;;;;;;9.98;6.43;;;;;;;18.75;30.96;100138.97;5149257;27;20030;-63
2021/12/14 06:51:50;;;;;;;9.93;6.90;;;;;;;18.78;31.01;100146.69;5149446;27;20040;-63
2021/12/14 06:54:28;;;;;;;10.05;6.47;;;;;;;18.78;31.04;100144.00;5149195;27;20021;-63
2021/12/14 06:56:57;;;;;;;10.68;6.63;;;;;;;18.79;31.00;100153.75;5149074;27;20023;-62
2021/12/14 06:59:23;;;;;;;10.80;6.97;;;;;;;18.78;31.14;100153.91;5149119;27;20023;-62
2021/12/14 07:01:54;;;;;;;9.85;7.85;;;;;;;18.78;30.93;100153.91;5148509;27;20023;-63
2021/12/14 07:04:23;;;;;;;8.50;6.78;;;;;;;18.78;31.06;100152.06;5149119;27;20019;-62
2021/12/14 07:06:56;;;;;;;9.43;7.63;;;;;;;18.78;30.83;100153.91;5149017;27;20031;-63
2021/12/14 07:09:27;;;;;;;10.43;7.32;;;;;;;18.76;31.00;100154.91;5149019;27;20059;-63
2021/12/14 07:12:05;;;;;;;10.93;6.60;;;;;;;18.76;30.81;100164.78;5148854;27;20136;-63
2021/12/14 07:14:31;;;;;;;9.85;7.45;;;;;;;18.77;30.87;100163.78;5148870;27;20072;-63
2021/12/14 07:17:01;;;;;;;11.35;7.72;;;;;;;18.80;30.96;100171.50;5148816;27;20026;-63
2021/12/14 07:19:48;;;;;;;11.32;7.50;;;;;;;18.82;30.76;100168.69;5148892;27;20042;-63
2021/12/14 07:22:41;;;;;;;9.98;7.53;;;;;;;18.83;30.68;100171.19;5148721;27;20228;-63
2021/12/14 07:25:14;;;;;;;10.48;7.10;;;;;;;18.83;30.77;100170.34;5136472;27;20022;-63
2021/12/14 07:27:42;;;;;;;8.90;6.60;;;;;;;18.85;30.83;100169.19;5130614;28;20068;-62
2021/12/14 07:30:17;;;;;;;10.00;7.53;;;;;;;18.88;30.56;100173.38;5148727;27;20147;-62
2021/12/14 07:32:47;;;;;;;10.63;7.55;;;;;;;18.87;30.54;100179.75;5148640;27;20110;-63
2021/12/14 07:35:14;;;;;;;11.02;7.30;;;;;;;18.87;30.50;100172.56;5148474;28;20023;-63
2021/12/14 07:37:39;;;;;;;8.82;7.15;;;;;;;18.84;30.64;100172.03;5148488;27;20059;-62
2021/12/14 07:40:06;;;;;;;9.32;6.28;;;;;;;18.83;30.56;100168.50;5148617;28;20023;-62
2021/12/14 07:42:31;;;;;;;9.20;6.40;;;;;;;18.85;30.55;100168.34;5148447;27;20042;-63
2021/12/14 07:44:57;;;;;;;9.27;7.35;;;;;;;18.84;30.65;100170.19;5148554;28;20015;-63
2021/12/14 07:47:23;;;;;;;11.30;7.05;;;;;;;18.85;30.70;100181.75;5148487;27;20086;-63
2021/12/14 07:49:54;;;;;;;10.35;7.78;;;;;;;18.85;30.74;100176.38;5148493;28;20131;-63
2021/12/14 07:52:21;;;;;;;;;;;;;;;18.82;30.67;100182.09;5148889;27;20138;-63
2021/12/14 07:54:50;;;;;;;12.25;6.50;;;;;;;18.81;30.73;100191.97;5148496;28;20096;-62
2021/12/14 07:57:20;;;;;;;10.93;6.32;;;;;;;18.83;30.76;100181.91;5148431;27;20023;-62
2021/12/14 07:59:50;;;;;;;11.88;6.75;;;;;;;18.85;30.68;100181.75;5148388;28;20022;-62
2021/12/14 08:02:18;;;;;;;7.77;5.97;;;;;;;18.83;30.82;100179.25;5148306;27;20019;-62
2021/12/14 08:05:05;;;;;;;8.07;6.00;;;;;;;18.84;30.71;100172.88;5148382;28;20249;-63
2021/12/14 08:07:36;;;;;;;10.60;6.88;;;;;;;18.87;30.92;100180.59;5148219;27;20220;-62
2021/12/14 08:10:06;;;;;;;9.23;6.65;;;;;;;18.85;30.71;100179.91;5148188;28;20096;-63
2021/12/14 08:12:44;;;;;;;10.27;7.38;;;;;;;18.88;30.64;100182.28;5148515;27;20035;-62
2021/12/14 08:15:30;;;;;;;8.25;6.57;;;;;;;18.90;30.74;100190.16;5134373;27;20148;-63
2021/12/14 08:18:04;;;;;;;10.30;6.57;;;;;;;18.91;30.75;100184.63;5152240;27;20082;-62
2021/12/14 08:20:31;;;;;;;9.43;7.20;;;;;;;18.93;30.73;100184.50;5152224;27;20076;-62
2021/12/14 08:23:10;;;;;;;11.18;7.15;;;;;;;18.95;30.80;100190.56;5151933;27;20031;-65
2021/12/14 08:25:36;;;;;;;10.90;7.85;;;;;;;18.95;30.59;100185.22;5152355;27;20030;-64
2021/12/14 08:28:06;;;;;;;10.98;7.30;;;;;;;18.96;30.67;100183.34;5152003;27;20167;-64
2021/12/14 08:30:33;;;;;;;9.40;7.45;;;;;;;18.96;30.65;100186.03;5151859;27;20024;-64
2021/12/14 08:32:59;;;;;;;11.05;7.45;;;;;;;18.95;30.59;100168.25;5151946;27;20090;-62
2021/12/14 08:35:25;;;;;;;12.35;8.35;;;;;;;18.96;30.51;100183.34;5151725;27;20275;-64
2021/12/14 08:37:57;;;;;;;11.32;7.32;;;;;;;18.96;30.57;100180.66;5151689;27;20026;-62
2021/12/14 08:40:37;;;;;;;10.55;6.97;;;;;;;18.97;30.67;100182.34;5151728;27;20015;-63
2021/12/14 08:43:13;;;;;;;11.13;8.02;;;;;;;18.93;30.58;100187.16;5151894;27;20067;-63
2021/12/14 08:45:46;;;;;;;12.07;7.88;;;;;;;18.94;30.60;100175.47;5151944;27;20026;-63
2021/12/14 08:48:18;;;;;;;11.23;7.70;;;;;;;18.94;30.47;100180.84;5151538;27;20252;-63
2021/12/14 08:50:52;;;;;;;11.05;7.78;;;;;;;18.92;30.56;100191.69;5151486;27;20026;-63
2021/12/14 08:53:18;;;;;;;9.65;7.35;;;;;;;18.91;30.62;100179.28;5151478;27;20018;-62
2021/12/14 08:55:47;;;;;;;14.35;8.20;;;;;;;18.91;30.66;100181.94;5151546;27;20023;-64
2021/12/14 08:58:13;;;;;;;17.30;8.07;;;;;;;18.92;30.66;100182.81;5151337;27;20139;-63
2021/12/14 09:00:47;;;;;;;12.30;8.00;;;;;;;18.90;30.56;100182.94;5151479;27;20011;-64
2021/12/14 09:03:20;;;;;;;11.05;7.65;;;;;;;18.92;30.53;100175.59;5151291;27;20132;-63
2021/12/14 09:05:49;;;;;;;12.20;7.70;;;;;;;18.94;30.73;100178.16;5149268;27;20038;-63
2021/12/14 09:08:17;;;;;;;19.52;7.70;;;;;;;18.96;31.14;100178.00;5149632;27;20015;-63
2021/12/14 09:10:49;;;;;;;12.25;7.47;;;;;;;19.05;31.39;100187.75;5146474;27;20094;-63
2021/12/14 09:13:15;;;;;;;18.95;9.00;;;;;;;19.12;31.46;100188.81;5142061;27;20086;-62
2021/12/14 09:15:40;;;;;;;17.50;11.40;;;;;;;19.16;31.54;100187.47;5146181;27;20240;-61
2021/12/14 09:18:08;;;;;;;23.17;12.15;;;;;;;19.21;31.54;100190.50;5148357;27;20027;-62
2021/12/14 09:20:44;;;;;;;25.73;12.43;;;;;;;19.23;31.74;100186.81;5135679;27;20043;-63
2021/12/14 09:23:16;;;;;;;23.63;12.65;;;;;;;19.24;32.04;100189.38;5138841;27;20038;-63
2021/12/14 09:25:42;;;;;;;24.20;12.65;;;;;;;19.25;32.01;100190.19;5138049;27;20042;-62
2021/12/14 09:28:08;;;;;;;23.52;13.52;;;;;;;19.30;32.12;100179.81;5144109;27;20023;-64
2021/12/14 09:30:42;;;;;;;24.88;14.50;;;;;;;19.41;32.23;100174.16;5144792;27;20285;-65
2021/12/14 09:33:08;;;;;;;29.55;14.10;;;;;;;19.48;32.22;100180.53;5140769;27;20214;-64
2021/12/14 09:35:35;;;;;;;23.80;12.43;;;;;;;19.52;32.34;100179.22;5131840;27;20016;-64
2021/12/14 09:38:02;;;;;;;26.42;12.95;;;;;;;19.52;32.45;100171.16;5144573;27;20129;-64
2021/12/14 09:40:38;;;;;;;21.13;12.25;;;;;;;19.54;32.55;100175.53;5149172;27;20292;-68
2021/12/14 09:43:05;;;;;;;23.23;12.32;;;;;;;19.56;32.63;100176.19;5144423;27;20285;-62
2021/12/14 09:45:42;;;;;;;23.00;12.48;;;;;;;19.62;32.59;100172.88;5155038;27;20015;-62
2021/12/14 09:48:10;;;;;;;22.33;12.82;;;;;;;19.64;32.49;100168.16;5137768;27;20217;-62
2021/12/14 09:50:37;;;;;;;20.30;12.32;;;;;;;19.68;32.58;100166.81;5144229;27;20046;-60
2021/12/14 09:53:08;;;;;;;22.67;11.90;;;;;;;19.71;32.45;100168.34;5146475;27;20011;-61
2021/12/14 09:55:38;;;;;;;20.00;11.75;;;;;;;19.66;32.47;100168.84;5138451;27;20292;-62
2021/12/14 09:58:09;;;;;;;20.08;11.38;;;;;;;19.65;32.60;100169.84;5147230;27;20030;-63
2021/12/14 10:00:40;;;;;;;18.83;11.18;;;;;;;19.64;32.67;100166.31;5150273;27;20121;-61
2021/12/14 10:03:06;;;;;;;20.38;11.48;;;;;;;19.61;32.62;100163.97;5147566;27;20023;-68
2021/12/14 10:05:39;;;;;;;26.05;11.73;;;;;;;19.60;32.60;100161.47;5142915;27;20155;-62
2021/12/14 10:08:15;;;;;;;17.70;10.13;;;;;;;19.61;32.65;100160.47;5148654;27;20050;-64
2021/12/14 10:10:52;;;;;;;16.10;9.85;;;;;;;19.60;32.52;100159.59;5148056;27;20039;-59
2021/12/14 10:13:18;;;;;;;23.90;11.23;;;;;;;19.65;32.74;100167.16;5149785;27;20059;-64
2021/12/14 10:15:48;;;;;;;21.02;10.30;;;;;;;19.70;32.71;100164.81;5146865;27;21313;-62
2021/12/14 10:18:38;;;;;;;14.15;9.52;;;;;;;19.73;32.43;100167.19;5136158;27;20041;-64
2021/12/14 10:21:08;;;;;;;14.32;10.25;;;;;;;19.77;32.04;100173.91;5133459;27;20015;-63
2021/12/14 10:23:36;;;;;;;17.30;9.68;;;;;;;19.81;32.00;100172.56;5146605;27;20023;-60
2021/12/14 10:26:04;;;;;;;20.08;9.35;;;;;;;19.85;31.92;100174.91;5129427;27;20214;-63
2021/12/14 10:28:32;;;;;;;16.08;10.00;;;;;;;19.87;31.65;100179.13;5135907;27;20019;-63
2021/12/14 10:31:12;;;;;;;16.88;9.35;;;;;;;19.91;31.81;100177.81;5147183;27;20079;-62
2021/12/14 10:33:42;;;;;;;18.50;10.38;;;;;;;19.93;31.85;100167.75;5144422;27;20046;-62
2021/12/14 10:36:23;;;;;;;13.35;9.55;;;;;;;19.95;31.72;100172.94;5128996;27;20026;-63
2021/12/14 10:39:05;;;;;;;17.63;8.85;;;;;;;19.96;31.60;100179.97;5142870;27;20025;-62
2021/12/14 10:44:16;;;;;;;16.80;9.85;;;;;;;19.97;31.54;100174.47;5147496;27;20087;-60
2021/12/14 10:46:46;;;;;;;15.35;8.68;;;;;;;19.99;31.58;100171.59;5148694;27;20023;-61
2021/12/14 10:49:15;;;;;;;15.88;9.63;;;;;;;20.04;31.60;100181.84;5146488;27;20051;-64
2021/12/14 10:51:43;;;;;;;14.10;10.25;;;;;;;20.09;31.39;100172.28;5145217;27;20025;-62
2021/12/14 10:54:12;;;;;;;15.45;8.95;;;;;;;20.15;31.55;100175.31;5147435;27;20037;-61
2021/12/14 10:56:52;;;;;;;15.18;8.40;;;;;;;20.12;31.83;100169.25;5147645;27;20023;-64
2021/12/14 10:59:21;;;;;;;15.98;10.27;;;;;;;20.11;31.63;100166.75;5148641;27;20054;-62
2021/12/14 11:01:50;;;;;;;18.48;10.40;;;;;;;20.08;31.73;100177.81;5150201;27;20033;-69
2021/12/14 11:04:27;;;;;;;16.08;9.82;;;;;;;20.04;31.89;100169.25;5147139;27;20015;-64
2021/12/14 11:06:57;;;;;;;27.60;10.20;;;;;;;19.99;31.70;100171.59;5145131;27;20038;-62
2021/12/14 11:12:33;;;;;;;21.85;13.38;;;;;;;18.77;31.67;100161.09;5148306;27;20018;-65
2021/12/14 11:15:07;;;;;;;20.65;14.02;;;;;;;18.29;31.96;100168.66;5148515;27;20027;-67
2021/12/14 11:20:16;;;;;;;19.63;13.60;;;;;;;17.56;32.56;100157.13;5148750;27;20017;-67
2021/12/14 11:23:09;;;;;;;19.27;13.05;;;;;;;17.33;32.73;100154.84;5148117;27;20022;-66
2021/12/14 11:25:55;;;;;;;17.98;14.57;;;;;;;17.07;33.12;100155.56;5138096;27;20023;-65
2021/12/14 11:28:33;;;;;;;23.70;15.82;;;;;;;16.93;33.04;100156.84;5148010;27;20023;-67
2021/12/14 11:31:27;;;;;;;19.02;14.15;;;;;;;16.80;33.33;100158.19;5148445;27;20035;-64
2021/12/14 11:33:59;;;;;;;19.17;14.35;;;;;;;16.62;33.56;100148.25;5148218;27;20083;-65
2021/12/14 11:36:34;;;;;;;22.35;14.85;;;;;;;16.48;33.56;100153.06;5148377;27;20023;-67
2021/12/14 11:39:26;;;;;;;25.48;15.43;;;;;;;16.41;33.59;100140.44;5148297;27;20093;-65
2021/12/14 11:42:01;;;;;;;21.42;14.90;;;;;;;16.40;33.97;100142.25;5148583;27;20049;-67
2021/12/14 11:44:47;;;;;;;21.98;15.93;;;;;;;16.38;34.22;100143.38;5151618;27;20018;-68
2021/12/14 11:50:00;;;;;;;22.00;15.77;;;;;;;16.28;34.67;100148.72;5152832;27;20101;-66
2021/12/14 11:52:57;;;;;;;22.23;15.52;;;;;;;16.21;35.03;100153.81;5152596;27;20029;-66
2021/12/14 11:55:28;;;;;;;24.30;14.80;;;;;;;16.14;35.20;100158.03;5152208;27;20276;-65
2021/12/14 11:58:09;;;;;;;22.08;15.02;;;;;;;16.10;35.26;100141.44;5134354;27;20019;-64
2021/12/14 12:00:38;;;;;;;20.23;14.93;;;;;;;16.08;35.45;100140.75;5152557;27;20019;-67
2021/12/14 12:03:34;;;;;;;23.38;16.35;;;;;;;16.05;35.42;100149.06;5152147;27;20033;-65
2021/12/14 12:06:09;;;;;;;23.83;16.15;;;;;;;16.00;35.08;100145.94;5152518;27;20083;-65
2021/12/14 12:11:35;;;;;;;25.45;16.13;;;;;;;15.92;35.46;100148.50;5152367;27;20014;-66
2021/12/14 12:14:01;;;;;;;23.38;14.80;;;;;;;15.84;35.47;100146.50;5152025;27;20101;-65
2021/12/14 12:16:28;;;;;;;25.80;14.60;;;;;;;15.71;35.73;100150.28;5152145;27;20014;-64
2021/12/14 12:19:13;;;;;;;21.42;15.52;;;;;;;15.64;35.53;100143.81;5151981;27;20292;-64
2021/12/14 12:21:40;;;;;;;28.08;15.52;;;;;;;15.62;35.85;100139.59;5152108;27;20026;-65
2021/12/14 12:24:30;;;;;;;25.10;15.30;;;;;;;15.63;35.28;100151.97;5133720;27;20035;-66
2021/12/14 12:27:24;;;;;;;21.48;15.43;;;;;;;15.63;35.36;100152.78;5151883;27;20011;-64